createdAt,value
2022-12-18T00:01:28.636Z,28.87
2022-12-18T00:03:56.681Z,26.07
2022-12-18T00:06:25.351Z,26.23
2022-12-18T00:08:52.709Z,28.03
2022-12-18T00:11:21.609Z,24.87
2022-12-18T00:13:49.011Z,25.47
2022-12-18T00:16:19.480Z,24.93
2022-12-18T00:18:47.494Z,26.53
2022-12-18T00:21:14.860Z,24.27
2022-12-18T00:23:43.424Z,27.33
2022-12-18T00:26:16.189Z,26.23
2022-12-18T00:28:44.121Z,25.87
2022-12-18T00:31:16.049Z,24.17
2022-12-18T00:33:43.474Z,23.63
2022-12-18T00:36:12.631Z,25.93
2022-12-18T00:38:40.477Z,25.40
2022-12-18T00:41:10.140Z,25.10
2022-12-18T00:43:38.385Z,24.20
2022-12-18T00:46:06.434Z,25.73
2022-12-18T00:48:33.912Z,24.63
2022-12-18T00:51:01.246Z,24.97
2022-12-18T00:53:28.908Z,27.27
2022-12-18T00:55:56.599Z,27.10
2022-12-18T00:58:23.935Z,25.43
2022-12-18T01:00:51.764Z,25.10
2022-12-18T01:03:19.199Z,25.30
2022-12-18T01:05:46.864Z,24.83
2022-12-18T01:08:14.572Z,23.70
2022-12-18T01:10:44.030Z,23.90
2022-12-18T01:13:11.386Z,26.57
2022-12-18T01:15:39.069Z,26.53
2022-12-18T01:18:06.830Z,26.47
2022-12-18T01:20:34.151Z,25.43
2022-12-18T01:23:01.747Z,26.90
2022-12-18T01:25:29.153Z,25.33
2022-12-18T01:27:56.523Z,25.17
2022-12-18T01:30:26.381Z,26.90
2022-12-18T01:32:53.969Z,26.17
2022-12-18T01:35:21.310Z,24.37
2022-12-18T01:37:49.053Z,25.30
2022-12-18T01:40:16.507Z,26.37
2022-12-18T01:42:43.839Z,24.67
2022-12-18T01:45:12.258Z,26.87
2022-12-18T01:48:02.682Z,25.80
2022-12-18T01:50:36.191Z,25.90
2022-12-18T01:53:23.704Z,24.57
2022-12-18T01:55:53.071Z,25.90
2022-12-18T01:58:23.187Z,25.27
2022-12-18T02:00:50.898Z,25.77
2022-12-18T02:03:20.694Z,28.67
2022-12-18T02:06:22.049Z,26.33
2022-12-18T02:09:14.993Z,26.77
2022-12-18T02:12:14.793Z,24.97
2022-12-18T02:14:44.910Z,26.20
2022-12-18T02:17:14.179Z,27.43
2022-12-18T02:20:06.357Z,28.50
2022-12-18T02:23:00.399Z,27.47
2022-12-18T02:25:46.597Z,26.70
2022-12-18T02:28:16.349Z,26.87
2022-12-18T02:30:44.148Z,27.07
2022-12-18T02:33:11.681Z,25.93
2022-12-18T02:35:39.357Z,27.73
2022-12-18T02:38:06.784Z,27.17
2022-12-18T02:40:34.879Z,28.60
2022-12-18T02:43:10.558Z,26.57
2022-12-18T02:45:47.343Z,27.87
2022-12-18T02:48:15.763Z,25.60
2022-12-18T02:50:47.083Z,25.57
2022-12-18T02:53:37.340Z,27.37
2022-12-18T02:56:16.644Z,25.57
2022-12-18T02:59:01.455Z,26.23
2022-12-18T03:01:34.118Z,26.90
2022-12-18T03:04:10.703Z,25.53
2022-12-18T03:06:42.639Z,26.33
2022-12-18T03:09:22.161Z,24.57
2022-12-18T03:12:21.966Z,26.17
2022-12-18T03:15:08.056Z,23.07
2022-12-18T03:17:36.456Z,25.43
2022-12-18T03:20:10.560Z,25.73
2022-12-18T03:22:38.026Z,24.63
2022-12-18T03:25:07.479Z,26.77
2022-12-18T03:27:35.433Z,28.77
2022-12-18T03:30:08.350Z,28.03
2022-12-18T03:33:00.004Z,27.13
2022-12-18T03:35:29.869Z,23.97
2022-12-18T03:37:57.650Z,25.67
2022-12-18T03:40:30.521Z,26.93
2022-12-18T03:43:04.372Z,26.23
2022-12-18T03:45:39.656Z,26.43
2022-12-18T03:48:09.253Z,26.10
2022-12-18T03:50:39.537Z,25.60
2022-12-18T03:53:38.185Z,25.60
2022-12-18T03:56:06.346Z,26.57
2022-12-18T03:58:34.202Z,25.53
2022-12-18T04:01:03.445Z,27.67
2022-12-18T04:03:31.267Z,25.13
2022-12-18T04:05:58.633Z,27.50
2022-12-18T04:08:28.337Z,25.50
2022-12-18T04:10:56.666Z,27.13
2022-12-18T04:13:44.344Z,26.47
2022-12-18T04:16:13.759Z,25.20
2022-12-18T04:18:41.318Z,26.47
2022-12-18T04:21:09.492Z,26.93
2022-12-18T04:23:37.584Z,24.83
2022-12-18T04:26:05.332Z,27.50
2022-12-18T04:28:34.031Z,26.63
2022-12-18T04:31:02.007Z,26.00
2022-12-18T04:33:29.359Z,26.53
2022-12-18T04:35:57.146Z,26.73
2022-12-18T04:38:25.870Z,24.97
2022-12-18T04:40:55.399Z,27.67
2022-12-18T04:43:23.066Z,26.37
2022-12-18T04:45:50.793Z,26.43
2022-12-18T04:48:18.209Z,27.33
2022-12-18T04:50:45.516Z,25.00
2022-12-18T04:53:13.197Z,25.57
2022-12-18T04:55:40.535Z,26.67
2022-12-18T04:58:07.880Z,25.37
2022-12-18T05:00:35.547Z,24.40
2022-12-18T05:03:03.465Z,26.23
2022-12-18T05:05:31.065Z,26.47
2022-12-18T05:07:58.686Z,24.87
2022-12-18T05:10:26.160Z,26.03
2022-12-18T05:13:01.400Z,28.10
2022-12-18T05:15:30.404Z,27.03
2022-12-18T05:17:58.569Z,24.30
2022-12-18T05:20:26.270Z,25.63
2022-12-18T05:22:54.126Z,27.43
2022-12-18T05:25:21.495Z,26.47
2022-12-18T05:27:48.845Z,27.53
2022-12-18T05:30:16.509Z,25.90
2022-12-18T05:32:43.854Z,26.50
2022-12-18T05:35:11.496Z,24.90
2022-12-18T05:37:42.958Z,26.80
2022-12-18T05:40:11.578Z,24.80
2022-12-18T05:42:39.203Z,23.87
2022-12-18T05:45:06.986Z,25.10
2022-12-18T05:47:34.431Z,24.47
2022-12-18T05:50:02.107Z,26.53
2022-12-18T05:52:29.480Z,23.33
2022-12-18T05:54:56.853Z,27.20
2022-12-18T05:57:24.437Z,24.93
2022-12-18T05:59:51.768Z,26.20
2022-12-18T06:02:19.203Z,30.87
2022-12-18T06:04:46.893Z,28.77
2022-12-18T06:07:14.200Z,25.53
2022-12-18T06:09:41.622Z,28.60
2022-12-18T06:12:09.374Z,24.40
2022-12-18T06:14:36.719Z,26.40
2022-12-18T06:17:04.082Z,25.40
2022-12-18T06:19:31.661Z,28.93
2022-12-18T06:21:59.906Z,26.83
2022-12-18T06:24:27.451Z,26.93
2022-12-18T06:26:55.297Z,26.13
2022-12-18T06:29:22.696Z,27.37
2022-12-18T06:31:50.287Z,27.37
2022-12-18T06:34:18.066Z,26.63
2022-12-18T06:36:45.385Z,29.20
2022-12-18T06:39:12.752Z,41.80
2022-12-18T06:41:40.363Z,48.07
2022-12-18T06:44:07.782Z,39.70
2022-12-18T06:46:35.255Z,38.57
2022-12-18T06:49:02.868Z,35.17
2022-12-18T06:51:30.175Z,33.77
2022-12-18T06:53:57.719Z,32.87
2022-12-18T06:56:25.348Z,31.60
2022-12-18T06:58:52.811Z,30.90
2022-12-18T07:01:20.295Z,26.50
2022-12-18T07:03:48.081Z,27.27
2022-12-18T07:06:16.552Z,26.83
2022-12-18T07:08:44.246Z,30.23
2022-12-18T07:11:11.906Z,28.77
2022-12-18T07:13:39.743Z,28.77
2022-12-18T07:16:16.046Z,28.47
2022-12-18T07:18:46.295Z,26.70
2022-12-18T07:21:16.594Z,27.87
2022-12-18T07:23:44.549Z,28.80
2022-12-18T07:26:13.171Z,25.30
2022-12-18T07:28:41.005Z,26.43
2022-12-18T07:31:10.112Z,27.10
2022-12-18T07:33:39.883Z,27.03
2022-12-18T07:36:08.130Z,28.23
2022-12-18T07:38:35.935Z,30.60
2022-12-18T07:41:11.056Z,30.20
2022-12-18T07:43:39.060Z,28.67
2022-12-18T07:46:07.417Z,29.00
2022-12-18T07:48:35.062Z,29.63
2022-12-18T07:51:03.605Z,29.80
2022-12-18T07:53:31.376Z,28.87
2022-12-18T07:56:25.541Z,27.63
2022-12-18T07:58:49.923Z,31.63
2022-12-18T08:01:17.450Z,27.97
2022-12-18T08:03:45.310Z,31.27
2022-12-18T08:06:12.709Z,29.97
2022-12-18T08:08:42.347Z,30.90
2022-12-18T08:11:10.023Z,31.93
2022-12-18T08:13:37.525Z,31.03
2022-12-18T08:16:07.030Z,29.70
2022-12-18T08:18:35.439Z,29.87
2022-12-18T08:21:16.178Z,30.03
2022-12-18T08:23:44.135Z,29.83
2022-12-18T08:26:12.167Z,31.30
2022-12-18T08:28:39.560Z,31.53
2022-12-18T08:31:07.466Z,31.77
2022-12-18T08:33:35.816Z,29.77
2022-12-18T08:36:06.141Z,28.33
2022-12-18T08:38:34.072Z,31.37
2022-12-18T08:41:06.571Z,36.03
2022-12-18T08:43:52.759Z,37.43
2022-12-18T08:46:20.961Z,34.75
2022-12-18T08:48:48.664Z,30.03
2022-12-18T08:51:17.069Z,30.40
2022-12-18T08:53:45.508Z,28.50
2022-12-18T08:56:13.382Z,26.87
2022-12-18T08:58:40.980Z,26.83
2022-12-18T09:01:12.852Z,26.97
2022-12-18T09:03:41.033Z,28.90
2022-12-18T09:06:08.759Z,27.07
2022-12-18T09:08:37.799Z,26.43
2022-12-18T09:11:05.903Z,27.37
2022-12-18T09:13:33.314Z,27.17
2022-12-18T09:16:00.616Z,26.23
2022-12-18T09:18:28.344Z,25.53
2022-12-18T09:20:55.666Z,26.30
2022-12-18T09:23:23.154Z,25.33
2022-12-18T09:25:50.772Z,25.87
2022-12-18T09:28:18.810Z,26.93
2022-12-18T09:30:49.985Z,24.33
2022-12-18T09:33:18.090Z,28.33
2022-12-18T09:35:45.740Z,25.00
2022-12-18T09:38:15.146Z,26.03
2022-12-18T09:40:57.270Z,26.17
2022-12-18T09:43:37.060Z,25.97
2022-12-18T09:46:07.441Z,24.73
2022-12-18T09:48:46.646Z,26.90
2022-12-18T09:51:18.430Z,25.83
2022-12-18T09:53:48.567Z,27.80
2022-12-18T09:56:20.493Z,29.30
2022-12-18T09:59:01.854Z,28.20
2022-12-18T10:01:38.898Z,26.60
2022-12-18T10:04:11.055Z,26.83
2022-12-18T10:06:55.103Z,26.53
2022-12-18T10:09:38.452Z,24.87
2022-12-18T10:12:18.838Z,25.70
2022-12-18T10:15:11.861Z,24.30
2022-12-18T10:17:47.216Z,22.57
2022-12-18T10:20:17.709Z,24.53
2022-12-18T10:23:26.483Z,24.00
2022-12-18T10:25:54.084Z,24.00
2022-12-18T10:28:21.597Z,23.17
2022-12-18T10:30:48.975Z,26.00
2022-12-18T10:33:28.438Z,25.77
2022-12-18T10:35:55.900Z,25.77
2022-12-18T10:38:25.632Z,27.63
2022-12-18T10:41:06.609Z,21.63
2022-12-18T10:43:41.783Z,24.17
2022-12-18T10:46:09.113Z,26.50
2022-12-18T10:48:40.179Z,23.87
2022-12-18T10:51:10.721Z,25.37
2022-12-18T10:53:41.352Z,24.53
2022-12-18T10:56:08.729Z,25.03
2022-12-18T10:58:37.190Z,26.70
2022-12-18T11:01:13.004Z,22.77
2022-12-18T11:03:41.426Z,24.67
2022-12-18T11:06:20.205Z,23.53
2022-12-18T11:09:01.923Z,24.13
2022-12-18T11:11:30.115Z,22.77
2022-12-18T11:14:05.603Z,22.50
2022-12-18T11:17:03.046Z,24.85
2022-12-18T11:19:42.051Z,25.77
2022-12-18T11:22:25.413Z,25.37
2022-12-18T11:25:29.985Z,22.60
2022-12-18T11:27:56.447Z,23.50
2022-12-18T11:30:29.332Z,23.93
2022-12-18T11:33:26.378Z,22.53
2022-12-18T11:35:55.059Z,21.63
2022-12-18T11:38:42.513Z,21.90
2022-12-18T11:41:49.266Z,23.23
2022-12-18T11:44:22.403Z,21.30
2022-12-18T11:47:01.902Z,23.10
2022-12-18T11:49:36.243Z,23.10
2022-12-18T11:52:25.387Z,23.20
2022-12-18T11:54:54.266Z,20.00
2022-12-18T11:57:42.327Z,19.60
2022-12-18T12:00:20.667Z,20.60
2022-12-18T12:03:10.639Z,22.80
2022-12-18T12:05:56.159Z,22.73
2022-12-18T12:08:35.774Z,21.55
2022-12-18T12:11:21.190Z,21.60
2022-12-18T12:14:17.711Z,21.45
2022-12-18T12:17:00.594Z,21.13
2022-12-18T12:20:09.728Z,22.73
2022-12-18T12:22:51.213Z,21.60
2022-12-18T12:25:27.928Z,20.53
2022-12-18T12:28:04.380Z,19.55
2022-12-18T12:33:27.238Z,22.00
2022-12-18T12:36:27.307Z,21.53
2022-12-18T12:38:59.216Z,21.03
2022-12-18T12:41:47.733Z,21.00
2022-12-18T12:44:18.272Z,21.70
2022-12-18T12:46:46.306Z,22.43
2022-12-18T12:49:16.536Z,23.80
2022-12-18T12:51:57.981Z,21.17
2022-12-18T12:54:25.925Z,22.03
2022-12-18T12:57:04.979Z,21.47
2022-12-18T12:59:39.507Z,20.90
2022-12-18T13:02:33.578Z,20.70
2022-12-18T13:05:24.565Z,22.17
2022-12-18T13:08:00.416Z,22.93
2022-12-18T13:10:33.469Z,25.17
2022-12-18T13:13:11.097Z,24.37
2022-12-18T13:15:46.233Z,21.17
2022-12-18T13:18:21.619Z,21.87
2022-12-18T13:20:58.507Z,23.63
2022-12-18T13:23:34.190Z,26.50
2022-12-18T13:26:28.877Z,22.83
2022-12-18T13:28:57.860Z,22.93
2022-12-18T13:31:40.704Z,23.27
2022-12-18T13:34:26.869Z,22.60
2022-12-18T13:36:56.561Z,24.10
2022-12-18T13:39:30.301Z,21.37
2022-12-18T13:42:06.971Z,21.83
2022-12-18T13:44:41.418Z,23.10
2022-12-18T13:47:38.663Z,21.03
2022-12-18T13:50:29.855Z,20.27
2022-12-18T13:53:04.113Z,24.93
2022-12-18T13:55:31.455Z,22.27
2022-12-18T13:58:08.135Z,21.60
2022-12-18T14:00:35.996Z,22.03
2022-12-18T14:03:21.737Z,21.07
2022-12-18T14:06:15.705Z,19.73
2022-12-18T14:08:45.293Z,29.20
2022-12-18T14:11:23.423Z,33.03
2022-12-18T14:13:53.083Z,28.70
2022-12-18T14:16:20.902Z,31.87
2022-12-18T14:18:56.529Z,31.37
2022-12-18T14:21:30.427Z,30.37
2022-12-18T14:24:10.185Z,31.10
2022-12-18T14:26:37.776Z,30.10
2022-12-18T14:29:30.404Z,34.17
2022-12-18T14:32:19.245Z,79.53
2022-12-18T14:34:47.048Z,56.13
2022-12-18T14:37:16.212Z,49.40
2022-12-18T14:40:01.274Z,34.50
2022-12-18T14:42:30.954Z,35.57
2022-12-18T14:45:41.754Z,35.93
2022-12-18T14:48:23.657Z,38.20
2022-12-18T14:50:59.996Z,36.63
2022-12-18T14:53:52.409Z,38.67
2022-12-18T14:56:24.855Z,37.70
2022-12-18T14:58:57.643Z,39.67
2022-12-18T15:01:33.620Z,37.03
2022-12-18T15:04:01.608Z,40.38
2022-12-18T15:06:34.149Z,41.57
2022-12-18T15:09:04.104Z,48.37
2022-12-18T15:11:37.473Z,44.50
2022-12-18T15:14:24.963Z,37.67
2022-12-18T15:16:54.554Z,35.13
2022-12-18T15:19:52.064Z,36.07
2022-12-18T15:22:27.853Z,36.60
2022-12-18T15:24:56.263Z,34.45
2022-12-18T15:27:31.137Z,37.27
2022-12-18T15:30:07.737Z,36.73
2022-12-18T15:32:35.840Z,36.83
2022-12-18T15:35:12.464Z,32.77
2022-12-18T15:37:43.518Z,29.90
2022-12-18T15:40:19.197Z,38.43
2022-12-18T15:43:06.409Z,36.97
2022-12-18T15:45:34.047Z,36.20
2022-12-18T15:48:08.119Z,33.80
2022-12-18T15:50:35.828Z,33.90
2022-12-18T15:53:03.149Z,35.93
2022-12-18T15:55:59.315Z,34.37
2022-12-18T15:58:28.607Z,33.53
2022-12-18T16:00:56.380Z,33.17
2022-12-18T16:03:24.024Z,31.93
2022-12-18T16:05:51.954Z,32.53
2022-12-18T16:08:19.323Z,32.43
2022-12-18T16:10:47.031Z,36.47
2022-12-18T16:13:16.858Z,38.03
2022-12-18T16:15:44.289Z,39.07
2022-12-18T16:18:11.962Z,34.67
2022-12-18T16:20:39.419Z,37.87
2022-12-18T16:23:06.776Z,40.17
2022-12-18T16:25:34.778Z,33.40
2022-12-18T16:28:02.266Z,41.07
2022-12-18T16:30:35.442Z,37.97
2022-12-18T16:33:07.444Z,40.63
2022-12-18T16:35:35.268Z,35.47
2022-12-18T16:38:02.617Z,33.00
2022-12-18T16:40:31.423Z,32.07
2022-12-18T16:42:58.755Z,35.83
2022-12-18T16:45:34.013Z,36.77
2022-12-18T16:48:01.770Z,28.43
2022-12-18T16:50:29.075Z,37.27
2022-12-18T16:52:56.385Z,32.50
2022-12-18T16:55:24.033Z,32.90
2022-12-18T16:57:51.503Z,28.90
2022-12-18T17:00:18.948Z,31.73
2022-12-18T17:02:46.987Z,28.13
2022-12-18T17:05:14.598Z,30.47
2022-12-18T17:07:41.907Z,33.33
2022-12-18T17:10:10.110Z,31.23
2022-12-18T17:12:37.464Z,30.53
2022-12-18T17:15:05.260Z,28.87
2022-12-18T17:17:32.924Z,28.40
2022-12-18T17:20:00.820Z,31.23
2022-12-18T17:22:28.150Z,30.57
2022-12-18T17:24:55.759Z,28.87
2022-12-18T17:27:23.220Z,31.47
2022-12-18T17:29:50.570Z,31.03
2022-12-18T17:32:18.353Z,32.07
2022-12-18T17:34:45.722Z,30.53
2022-12-18T17:37:13.108Z,34.53
2022-12-18T17:39:40.725Z,32.67
2022-12-18T17:42:10.637Z,37.00
2022-12-18T17:44:43.326Z,35.97
2022-12-18T17:47:12.219Z,34.67
2022-12-18T17:49:39.652Z,31.43
2022-12-18T17:52:08.070Z,35.17
2022-12-18T17:54:39.364Z,38.30
2022-12-18T17:57:06.708Z,39.27
2022-12-18T17:59:34.414Z,39.80
2022-12-18T18:02:01.813Z,35.57
2022-12-18T18:04:30.482Z,40.23
2022-12-18T18:06:57.937Z,38.70
2022-12-18T18:09:25.242Z,36.93
2022-12-18T18:12:11.494Z,37.47
2022-12-18T18:14:38.928Z,37.28
2022-12-18T18:17:07.064Z,40.60
2022-12-18T18:19:34.459Z,41.50
2022-12-18T18:22:02.977Z,39.17
2022-12-18T18:24:31.241Z,38.93
2022-12-18T18:27:01.404Z,37.60
2022-12-18T18:29:30.511Z,41.80
2022-12-18T18:31:58.656Z,41.43
2022-12-18T18:34:28.144Z,41.93
2022-12-18T18:36:55.544Z,42.70
2022-12-18T18:39:23.156Z,44.37
2022-12-18T18:41:50.562Z,47.17
2022-12-18T18:44:18.495Z,45.13
2022-12-18T18:46:46.206Z,46.90
2022-12-18T18:49:14.308Z,46.67
2022-12-18T18:51:42.006Z,50.83
2022-12-18T18:54:09.865Z,45.57
2022-12-18T18:57:04.124Z,44.13
2022-12-18T18:59:31.470Z,43.97
2022-12-18T19:02:00.754Z,43.70
2022-12-18T19:04:33.439Z,44.87
2022-12-18T19:07:01.008Z,44.30
2022-12-18T19:09:28.604Z,45.73
2022-12-18T19:12:15.253Z,47.53
2022-12-18T19:14:43.048Z,43.00
2022-12-18T19:17:10.722Z,42.40
2022-12-18T19:19:38.395Z,41.93
2022-12-18T19:22:06.828Z,45.27
2022-12-18T19:24:34.556Z,47.03
2022-12-18T19:27:01.938Z,58.60
2022-12-18T19:29:29.416Z,69.27
2022-12-18T19:31:57.051Z,75.80
2022-12-18T19:34:24.465Z,67.83
2022-12-18T19:36:56.476Z,62.03
2022-12-18T19:39:27.000Z,53.73
2022-12-18T19:41:54.622Z,51.13
2022-12-18T19:44:22.201Z,48.93
2022-12-18T19:46:50.397Z,52.67
2022-12-18T19:49:18.296Z,52.70
2022-12-18T19:51:45.828Z,46.23
2022-12-18T19:54:17.076Z,42.10
2022-12-18T19:56:45.337Z,39.30
2022-12-18T19:59:12.724Z,39.40
2022-12-18T20:01:40.542Z,39.43
2022-12-18T20:04:08.493Z,38.40
2022-12-18T20:06:49.732Z,40.47
2022-12-18T20:09:17.483Z,38.90
2022-12-18T20:11:45.316Z,40.30
2022-12-18T20:14:13.157Z,43.70
2022-12-18T20:16:40.965Z,49.73
2022-12-18T20:19:08.779Z,49.33
2022-12-18T20:21:36.992Z,41.73
2022-12-18T20:24:04.829Z,40.13
2022-12-18T20:26:32.136Z,37.53
2022-12-18T20:28:59.555Z,40.77
2022-12-18T20:31:27.335Z,42.20
2022-12-18T20:33:59.638Z,46.00
2022-12-18T20:36:29.539Z,51.47
2022-12-18T20:39:00.493Z,50.80
2022-12-18T20:41:37.205Z,45.20
2022-12-18T20:44:06.165Z,46.40
2022-12-18T20:46:38.098Z,45.87
2022-12-18T20:49:05.463Z,44.10
2022-12-18T20:51:33.489Z,40.53
2022-12-18T20:54:01.158Z,40.57
2022-12-18T20:56:30.719Z,42.83
2022-12-18T20:58:58.802Z,42.57
2022-12-18T21:01:27.794Z,41.67
2022-12-18T21:03:55.247Z,43.77
2022-12-18T21:06:23.241Z,45.20
2022-12-18T21:08:51.076Z,42.40
2022-12-18T21:11:40.173Z,41.57
2022-12-18T21:14:22.014Z,42.50
2022-12-18T21:16:49.545Z,41.67
2022-12-18T21:19:18.707Z,41.33
2022-12-18T21:21:46.130Z,42.13
2022-12-18T21:24:13.675Z,41.73
2022-12-18T21:26:46.032Z,41.23
2022-12-18T21:29:19.370Z,43.37
2022-12-18T21:31:47.412Z,43.60
2022-12-18T21:34:22.566Z,43.90
2022-12-18T21:36:50.223Z,39.40
2022-12-18T21:39:17.710Z,40.23
2022-12-18T21:42:05.985Z,41.87
2022-12-18T21:47:22.757Z,37.58
2022-12-18T21:49:52.641Z,39.50
2022-12-18T21:52:26.238Z,42.67
2022-12-18T21:55:07.978Z,39.53
2022-12-18T21:57:39.757Z,39.40
2022-12-18T22:00:08.146Z,39.10
2022-12-18T22:02:39.521Z,41.40
2022-12-18T22:05:07.926Z,40.87
2022-12-18T22:07:35.402Z,39.97
2022-12-18T22:10:02.739Z,75.23
2022-12-18T22:12:43.118Z,65.03
2022-12-18T22:15:11.449Z,64.90
2022-12-18T22:17:40.800Z,65.40
2022-12-18T22:20:09.353Z,58.80
2022-12-18T22:22:36.676Z,58.63
2022-12-18T22:25:04.730Z,57.10
2022-12-18T22:27:32.074Z,52.90
2022-12-18T22:30:05.594Z,53.77
2022-12-18T22:32:33.701Z,54.67
2022-12-18T22:35:06.283Z,54.07
2022-12-18T22:37:37.074Z,54.10
2022-12-18T22:40:06.105Z,52.40
2022-12-18T22:42:34.757Z,52.87
2022-12-18T22:45:02.356Z,56.77
2022-12-18T22:47:30.935Z,53.60
2022-12-18T22:49:58.521Z,54.93
2022-12-18T22:52:26.235Z,54.37
2022-12-18T22:54:54.201Z,52.10
2022-12-18T22:57:22.395Z,62.70
2022-12-18T22:59:50.588Z,67.37
2022-12-18T23:02:18.930Z,65.83
2022-12-18T23:04:47.752Z,64.17
2022-12-18T23:07:16.340Z,60.67
2022-12-18T23:09:44.156Z,60.17
2022-12-18T23:12:19.280Z,61.63
2022-12-18T23:14:47.345Z,57.17
2022-12-18T23:17:14.730Z,60.43
2022-12-18T23:19:48.667Z,59.17
2022-12-18T23:22:17.218Z,55.53
2022-12-18T23:24:44.589Z,56.47
2022-12-18T23:27:12.371Z,57.80
2022-12-18T23:29:40.505Z,57.27
2022-12-18T23:32:07.970Z,57.57
2022-12-18T23:34:35.438Z,58.87
2022-12-18T23:37:03.766Z,55.43
2022-12-18T23:39:31.377Z,55.87
2022-12-18T23:41:58.757Z,56.07
2022-12-18T23:44:26.441Z,57.77
2022-12-18T23:46:53.826Z,55.53
2022-12-18T23:49:21.168Z,55.13
2022-12-18T23:51:49.080Z,52.80
2022-12-18T23:54:16.400Z,53.27
2022-12-18T23:56:43.765Z,51.83
2022-12-18T23:59:11.387Z,53.83
